createdAt,value
2017-06-11T00:00:16.600Z,13.64
2017-06-11T00:01:26.865Z,13.58
2017-06-11T00:02:36.810Z,13.58
2017-06-11T00:03:47.074Z,13.62
2017-06-11T00:04:57.338Z,13.64
2017-06-11T00:06:07.280Z,13.55
2017-06-11T00:07:17.549Z,13.61
2017-06-11T00:08:27.499Z,13.57
2017-06-11T00:09:37.763Z,13.58
2017-06-11T00:10:48.025Z,13.52
2017-06-11T00:11:58.285Z,13.52
2017-06-11T00:13:08.549Z,13.5
2017-06-11T00:14:18.813Z,13.52
2017-06-11T00:15:29.076Z,13.52
2017-06-11T00:16:39.338Z,13.61
2017-06-11T00:17:49.335Z,13.55
2017-06-11T00:18:59.281Z,13.52
2017-06-11T00:20:09.231Z,13.52
2017-06-11T00:21:19.493Z,13.5
2017-06-11T00:22:29.132Z,13.6
2017-06-11T00:23:43.138Z,13.47
2017-06-11T00:24:53.398Z,13.5
2017-06-11T00:26:03.656Z,13.5
2017-06-11T00:27:13.916Z,13.54
2017-06-11T00:28:24.179Z,13.43
2017-06-11T00:29:34.445Z,13.46
2017-06-11T00:30:44.707Z,13.47
2017-06-11T00:31:54.971Z,13.47
2017-06-11T00:33:04.920Z,13.42
2017-06-11T00:34:15.184Z,13.43
2017-06-11T00:35:25.448Z,13.4
2017-06-11T00:36:35.716Z,13.43
2017-06-11T00:37:45.977Z,13.42
2017-06-11T00:38:55.925Z,13.42
2017-06-11T00:40:06.194Z,13.4
2017-06-11T00:41:16.464Z,13.45
2017-06-11T00:42:26.721Z,13.33
2017-06-11T00:43:36.978Z,13.37
2017-06-11T00:44:47.241Z,13.27
2017-06-11T00:45:57.502Z,13.33
2017-06-11T00:47:07.458Z,13.26
2017-06-11T00:48:17.715Z,13.28
2017-06-11T00:49:27.671Z,13.28
2017-06-11T00:50:37.934Z,13.21
2017-06-11T00:51:48.195Z,13.17
2017-06-11T00:52:58.140Z,13.09
2017-06-11T00:54:08.082Z,13.05
2017-06-11T00:55:18.345Z,13.05
2017-06-11T00:56:28.610Z,12.94
2017-06-11T00:57:38.554Z,12.98
2017-06-11T00:58:48.821Z,12.84
2017-06-11T00:59:59.080Z,12.76
2017-06-11T01:01:09.345Z,12.83
2017-06-11T01:02:19.610Z,12.65
2017-06-11T01:03:29.884Z,12.66
2017-06-11T01:04:39.830Z,12.63
2017-06-11T01:05:50.113Z,12.65
2017-06-11T01:07:00.378Z,12.51
2017-06-11T01:08:10.327Z,12.5
2017-06-11T01:09:20.591Z,12.4
2017-06-11T01:10:30.857Z,12.32
2017-06-11T01:11:41.115Z,12.36
2017-06-11T01:12:51.374Z,12.25
2017-06-11T01:14:01.320Z,12.2
2017-06-11T01:15:11.277Z,12.3
2017-06-11T01:16:21.542Z,12.23
2017-06-11T01:17:31.494Z,12.23
2017-06-11T01:18:41.753Z,12.28
2017-06-11T01:19:51.700Z,12.32
2017-06-11T01:21:01.967Z,12.35
2017-06-11T01:22:11.922Z,12.39
2017-06-11T01:23:22.184Z,12.48
2017-06-11T01:24:32.443Z,12.54
2017-06-11T01:25:42.081Z,12.51
2017-06-11T01:26:52.347Z,12.62
2017-06-11T01:28:02.616Z,12.63
2017-06-11T01:29:12.878Z,12.62
2017-06-11T01:30:23.153Z,12.68
2017-06-11T01:31:33.421Z,12.7
2017-06-11T01:32:43.373Z,12.65
2017-06-11T01:33:53.320Z,12.66
2017-06-11T01:35:03.582Z,12.63
2017-06-11T01:36:13.838Z,12.66
2017-06-11T01:37:24.095Z,12.63
2017-06-11T01:38:34.362Z,12.61
2017-06-11T01:39:44.328Z,12.61
2017-06-11T01:40:54.598Z,12.54
2017-06-11T01:42:04.867Z,12.57
2017-06-11T01:43:14.821Z,12.5
2017-06-11T01:44:24.772Z,12.51
2017-06-11T01:45:35.035Z,12.45
2017-06-11T01:46:45.297Z,12.39
2017-06-11T01:47:55.244Z,12.45
2017-06-11T01:49:05.551Z,12.44
2017-06-11T01:50:15.808Z,12.43
2017-06-11T01:51:25.761Z,12.43
2017-06-11T01:52:36.019Z,12.37
2017-06-11T01:53:46.281Z,12.29
2017-06-11T01:54:56.561Z,12.37
2017-06-11T01:56:06.826Z,12.39
2017-06-11T01:57:16.772Z,12.39
2017-06-11T01:58:27.038Z,12.4
2017-06-11T01:59:37.300Z,12.3
2017-06-11T02:00:47.577Z,12.4
2017-06-11T02:01:57.843Z,12.32
2017-06-11T02:03:07.674Z,12.39
2017-06-11T02:04:17.935Z,12.33
2017-06-11T02:05:27.572Z,12.3
2017-06-11T02:06:37.519Z,12.39
2017-06-11T02:07:47.785Z,12.25
2017-06-11T02:09:02.049Z,12.4
2017-06-11T02:10:12.315Z,12.26
2017-06-11T02:11:22.592Z,12.2
2017-06-11T02:12:32.859Z,12.17
2017-06-11T02:13:43.122Z,12.15
2017-06-11T02:14:53.633Z,12.26
2017-06-11T02:16:03.895Z,12.21
2017-06-11T02:17:14.160Z,12.26
2017-06-11T02:18:24.435Z,12.26
2017-06-11T02:19:34.701Z,12.25
2017-06-11T02:20:44.682Z,12.3
2017-06-11T02:21:54.949Z,12.37
2017-06-11T02:23:05.210Z,12.44
2017-06-11T02:24:15.467Z,12.37
2017-06-11T02:25:25.730Z,12.35
2017-06-11T02:26:35.990Z,12.39
2017-06-11T02:27:45.934Z,12.35
2017-06-11T02:28:56.194Z,12.32
2017-06-11T02:30:06.455Z,12.3
2017-06-11T02:31:16.430Z,12.33
2017-06-11T02:32:26.693Z,12.28
2017-06-11T02:33:36.956Z,12.32
2017-06-11T02:34:47.221Z,12.26
2017-06-11T02:35:57.485Z,12.23
2017-06-11T02:37:07.748Z,12.29
2017-06-11T02:38:18.013Z,12.1
2017-06-11T02:39:28.286Z,12.2
2017-06-11T02:40:38.545Z,12.21
2017-06-11T02:41:48.497Z,12.15
2017-06-11T02:42:58.762Z,12.11
2017-06-11T02:44:09.025Z,12.11
2017-06-11T02:45:18.968Z,12.12
2017-06-11T02:46:28.908Z,12.11
2017-06-11T02:47:39.171Z,12.12
2017-06-11T02:48:49.438Z,12.15
2017-06-11T02:49:59.404Z,12.14
2017-06-11T02:51:09.666Z,12.14
2017-06-11T02:52:19.923Z,12.25
2017-06-11T02:53:30.183Z,12.18
2017-06-11T02:54:40.449Z,12.25
2017-06-11T02:55:50.713Z,12.23
2017-06-11T02:57:00.975Z,12.17
2017-06-11T02:58:10.915Z,12.15
2017-06-11T02:59:20.863Z,12.25
2017-06-11T03:00:31.149Z,12.15
2017-06-11T03:01:41.103Z,12.14
2017-06-11T03:02:51.367Z,12.28
2017-06-11T03:04:01.617Z,12.15
2017-06-11T03:05:11.883Z,12.23
2017-06-11T03:06:21.830Z,12.11
2017-06-11T03:07:32.087Z,12.14
2017-06-11T03:08:42.349Z,12.15
2017-06-11T03:09:52.618Z,12.18
2017-06-11T03:11:02.568Z,12.12
2017-06-11T03:12:12.513Z,12.2
2017-06-11T03:13:22.772Z,12.15
2017-06-11T03:14:33.031Z,12.18
2017-06-11T03:15:42.976Z,12.25
2017-06-11T03:16:52.928Z,12.18
2017-06-11T03:18:03.191Z,12.14
2017-06-11T03:19:12.822Z,12.21
2017-06-11T03:20:23.085Z,12.17
2017-06-11T03:21:33.342Z,12.21
2017-06-11T03:22:43.294Z,12.15
2017-06-11T03:23:53.551Z,12.25
2017-06-11T03:25:03.816Z,12.1
2017-06-11T03:26:14.079Z,12.28
2017-06-11T03:27:24.332Z,12.12
2017-06-11T03:28:34.602Z,12.12
2017-06-11T03:29:44.865Z,12.12
2017-06-11T03:30:55.122Z,12.15
2017-06-11T03:32:05.384Z,12.17
2017-06-11T03:33:15.328Z,12.25
2017-06-11T03:34:25.594Z,12.29
2017-06-11T03:35:35.862Z,12.26
2017-06-11T03:36:46.132Z,12.2
2017-06-11T03:37:56.389Z,12.23
2017-06-11T03:39:06.656Z,12.39
2017-06-11T03:40:16.915Z,12.37
2017-06-11T03:41:27.169Z,12.39
2017-06-11T03:42:37.430Z,12.36
2017-06-11T03:43:47.699Z,12.36
2017-06-11T03:44:57.643Z,12.37
2017-06-11T03:46:07.280Z,12.3
2017-06-11T03:47:17.230Z,12.43
2017-06-11T03:48:26.869Z,12.36
2017-06-11T03:49:37.129Z,12.48
2017-06-11T03:50:47.074Z,12.48
2017-06-11T03:51:57.338Z,12.48
2017-06-11T03:53:07.289Z,12.43
2017-06-11T03:54:17.551Z,12.51
2017-06-11T03:55:27.822Z,12.53
2017-06-11T03:56:37.770Z,12.51
2017-06-11T03:57:48.036Z,12.68
2017-06-11T03:58:57.985Z,12.78
2017-06-11T04:00:08.282Z,12.81
2017-06-11T04:01:18.543Z,12.95
2017-06-11T04:02:28.806Z,13.05
2017-06-11T04:03:38.783Z,13.09
2017-06-11T04:04:49.055Z,13.12
2017-06-11T04:05:59.341Z,13.2
2017-06-11T04:07:09.611Z,13.31
2017-06-11T04:08:19.871Z,13.33
2017-06-11T04:09:29.824Z,13.39
2017-06-11T04:10:40.120Z,13.57
2017-06-11T04:11:50.068Z,13.67
2017-06-11T04:13:00.332Z,13.75
2017-06-11T04:14:10.275Z,13.85
2017-06-11T04:15:20.538Z,13.98
2017-06-11T04:16:30.803Z,14.08
2017-06-11T04:17:41.099Z,14.15
2017-06-11T04:18:51.360Z,14.2
2017-06-11T04:20:01.623Z,14.33
2017-06-11T04:21:11.575Z,14.43
2017-06-11T04:22:21.843Z,14.4
2017-06-11T04:23:32.108Z,14.49
2017-06-11T04:24:41.745Z,14.53
2017-06-11T04:25:51.696Z,14.52
2017-06-11T04:27:01.952Z,14.59
2017-06-11T04:28:11.906Z,14.55
2017-06-11T04:29:21.861Z,14.51
2017-06-11T04:30:32.119Z,14.63
2017-06-11T04:31:41.757Z,14.58
2017-06-11T04:32:52.020Z,14.56
2017-06-11T04:34:02.284Z,14.53
2017-06-11T04:35:11.918Z,14.62
2017-06-11T04:36:22.171Z,14.49
2017-06-11T04:37:32.436Z,14.48
2017-06-11T04:38:42.389Z,14.53
2017-06-11T04:39:52.653Z,14.52
2017-06-11T04:41:02.916Z,14.51
2017-06-11T04:42:12.865Z,14.55
2017-06-11T04:43:23.123Z,14.55
2017-06-11T04:44:33.417Z,14.55
2017-06-11T04:45:43.361Z,14.49
2017-06-11T04:46:53.629Z,14.52
2017-06-11T04:48:03.904Z,14.59
2017-06-11T04:49:14.170Z,14.67
2017-06-11T04:50:24.432Z,14.62
2017-06-11T04:51:34.698Z,14.73
2017-06-11T04:52:44.961Z,14.62
2017-06-11T04:53:54.917Z,14.62
2017-06-11T04:55:05.182Z,14.53
2017-06-11T04:56:15.446Z,14.51
2017-06-11T04:57:25.718Z,14.52
2017-06-11T04:58:35.675Z,14.55
2017-06-11T04:59:45.937Z,14.52
2017-06-11T05:00:56.200Z,14.44
2017-06-11T05:02:06.466Z,14.53
2017-06-11T05:03:16.730Z,14.55
2017-06-11T05:04:26.990Z,14.48
2017-06-11T05:05:36.929Z,14.44
2017-06-11T05:06:46.873Z,14.59
2017-06-11T05:07:57.142Z,14.48
2017-06-11T05:09:07.096Z,14.4
2017-06-11T05:10:17.359Z,14.41
2017-06-11T05:11:27.623Z,14.37
2017-06-11T05:12:37.885Z,14.38
2017-06-11T05:13:47.835Z,14.43
2017-06-11T05:14:58.114Z,14.4
2017-06-11T05:16:08.067Z,14.38
2017-06-11T05:17:18.018Z,14.43
2017-06-11T05:18:28.280Z,14.38
2017-06-11T05:19:38.547Z,14.37
2017-06-11T05:20:48.811Z,14.38
2017-06-11T05:21:59.086Z,14.4
2017-06-11T05:23:09.351Z,14.41
2017-06-11T05:24:19.620Z,14.43
2017-06-11T05:25:29.885Z,14.38
2017-06-11T05:26:39.207Z,14.4
2017-06-11T05:27:49.469Z,14.45
2017-06-11T05:28:59.732Z,14.45
2017-06-11T05:30:09.999Z,14.49
2017-06-11T05:31:20.260Z,14.59
2017-06-11T05:32:30.520Z,14.55
2017-06-11T05:33:40.468Z,14.62
2017-06-11T05:34:50.415Z,14.68
2017-06-11T05:36:00.674Z,14.66
2017-06-11T05:37:10.621Z,14.78
2017-06-11T05:38:20.892Z,14.73
2017-06-11T05:39:31.152Z,14.73
2017-06-11T05:40:41.099Z,14.85
2017-06-11T05:41:51.381Z,14.82
2017-06-11T05:43:01.639Z,14.9
2017-06-11T05:44:11.896Z,14.94
2017-06-11T05:45:22.164Z,14.96
2017-06-11T05:46:32.116Z,14.89
2017-06-11T05:47:42.078Z,14.99
2017-06-11T05:48:52.337Z,14.99
2017-06-11T05:50:02.599Z,15.02
2017-06-11T05:51:12.879Z,14.97
2017-06-11T05:52:23.142Z,15.07
2017-06-11T05:53:33.092Z,15.14
2017-06-11T05:54:43.353Z,15.19
2017-06-11T05:55:53.614Z,15.12
2017-06-11T05:57:03.876Z,15.11
2017-06-11T05:58:14.136Z,15.17
2017-06-11T05:59:24.401Z,15.18
2017-06-11T06:00:34.665Z,15.23
2017-06-11T06:01:44.302Z,15.23
2017-06-11T06:02:53.939Z,15.32
2017-06-11T06:04:03.893Z,15.3
2017-06-11T06:05:13.841Z,15.29
2017-06-11T06:06:24.109Z,15.37
2017-06-11T06:07:34.379Z,15.3
2017-06-11T06:08:44.646Z,15.35
2017-06-11T06:09:54.594Z,15.45
2017-06-11T06:11:04.854Z,15.44
2017-06-11T06:12:15.115Z,15.51
2017-06-11T06:13:25.389Z,15.6
2017-06-11T06:14:35.652Z,15.65
2017-06-11T06:15:45.917Z,15.6
2017-06-11T06:16:56.183Z,15.81
2017-06-11T06:18:06.140Z,15.81
2017-06-11T06:19:16.443Z,15.76
2017-06-11T06:20:26.389Z,15.81
2017-06-11T06:21:36.662Z,15.85
2017-06-11T06:22:46.610Z,15.98
2017-06-11T06:23:56.895Z,15.94
2017-06-11T06:25:07.156Z,15.92
2017-06-11T06:26:17.418Z,16.08
2017-06-11T06:27:27.368Z,16.08
2017-06-11T06:28:37.640Z,16.12
2017-06-11T06:29:47.917Z,16.16
2017-06-11T06:30:57.867Z,16.1
2017-06-11T06:32:08.142Z,16.21
2017-06-11T06:33:18.409Z,16.26
2017-06-11T06:34:28.680Z,16.36
2017-06-11T06:35:38.943Z,16.36
2017-06-11T06:36:48.888Z,16.24
2017-06-11T06:37:59.152Z,16.44
2017-06-11T06:39:09.413Z,16.51
2017-06-11T06:40:19.678Z,16.54
2017-06-11T06:41:29.944Z,16.54
2017-06-11T06:42:39.578Z,16.65
2017-06-11T06:43:49.838Z,16.59
2017-06-11T06:45:00.097Z,16.62
2017-06-11T06:46:10.360Z,16.64
2017-06-11T06:47:20.319Z,16.73
2017-06-11T06:48:30.265Z,16.73
2017-06-11T06:49:40.529Z,16.8
2017-06-11T06:50:50.792Z,16.86
2017-06-11T06:52:01.057Z,16.84
2017-06-11T06:53:11.016Z,17.02
2017-06-11T06:54:21.284Z,17.14
2017-06-11T06:55:31.567Z,17.09
2017-06-11T06:56:41.857Z,17.23
2017-06-11T06:57:52.150Z,17.31
2017-06-11T06:59:02.105Z,17.31
2017-06-11T07:00:12.059Z,17.34
2017-06-11T07:01:22.330Z,17.35
2017-06-11T07:02:32.601Z,17.41
2017-06-11T07:03:42.551Z,17.38
2017-06-11T07:04:52.821Z,17.35
2017-06-11T07:06:03.091Z,17.37
2017-06-11T07:07:13.350Z,17.37
2017-06-11T07:08:23.000Z,17.32
2017-06-11T07:09:33.271Z,17.24
2017-06-11T07:10:43.226Z,17.14
2017-06-11T07:11:53.498Z,17.16
2017-06-11T07:13:03.761Z,17.22
2017-06-11T07:14:14.028Z,17.16
2017-06-11T07:15:24.292Z,17.09
2017-06-11T07:16:34.557Z,17.01
2017-06-11T07:17:44.507Z,16.99
2017-06-11T07:18:54.463Z,17.01
2017-06-11T07:20:04.741Z,16.95
2017-06-11T07:21:15.006Z,17.04
2017-06-11T07:22:24.642Z,17.01
2017-06-11T07:23:34.928Z,17.07
2017-06-11T07:24:45.195Z,17.07
2017-06-11T07:25:55.457Z,17.14
2017-06-11T07:27:05.407Z,17.13
2017-06-11T07:28:15.361Z,17.05
2017-06-11T07:29:25.309Z,17.05
2017-06-11T07:30:35.573Z,17.02
2017-06-11T07:31:45.213Z,17.04
2017-06-11T07:32:55.485Z,17.14
2017-06-11T07:34:05.437Z,17.09
2017-06-11T07:35:14.761Z,17.07
2017-06-11T07:36:25.022Z,17.16
2017-06-11T07:37:35.311Z,17.1
2017-06-11T07:38:45.266Z,17.12
2017-06-11T07:39:55.531Z,17.17
2017-06-11T07:41:05.479Z,17.13
2017-06-11T07:42:15.752Z,17.13
2017-06-11T07:43:26.017Z,17.04
2017-06-11T07:44:36.285Z,16.95
2017-06-11T07:45:46.237Z,16.95
2017-06-11T07:46:56.499Z,16.82
2017-06-11T07:48:06.766Z,16.84
2017-06-11T07:49:17.038Z,16.79
2017-06-11T07:50:27.309Z,16.8
2017-06-11T07:51:37.579Z,16.72
2017-06-11T07:52:47.844Z,16.62
2017-06-11T07:53:58.109Z,16.54
2017-06-11T07:55:08.379Z,16.54
2017-06-11T07:56:18.647Z,16.55
2017-06-11T07:57:28.916Z,16.51
2017-06-11T07:58:38.873Z,16.58
2017-06-11T07:59:49.136Z,16.58
2017-06-11T08:00:59.401Z,16.54
2017-06-11T08:02:09.693Z,16.58
2017-06-11T08:03:19.958Z,16.64
2017-06-11T08:04:29.904Z,16.68
2017-06-11T08:05:40.176Z,16.55
2017-06-11T08:06:50.442Z,16.51
2017-06-11T08:08:00.716Z,16.51
2017-06-11T08:09:10.683Z,16.54
2017-06-11T08:10:20.952Z,16.54
2017-06-11T08:11:31.214Z,16.49
2017-06-11T08:12:40.856Z,16.46
2017-06-11T08:13:51.123Z,16.43
2017-06-11T08:15:01.385Z,16.43
2017-06-11T08:16:11.337Z,16.4
2017-06-11T08:17:21.610Z,16.46
2017-06-11T08:18:31.892Z,16.49
2017-06-11T08:19:42.159Z,16.49
2017-06-11T08:20:52.428Z,16.61
2017-06-11T08:22:02.704Z,16.64
2017-06-11T08:23:13.016Z,16.68
2017-06-11T08:24:23.286Z,16.69
2017-06-11T08:25:33.238Z,16.69
2017-06-11T08:26:43.194Z,16.76
2017-06-11T08:27:53.470Z,16.79
2017-06-11T08:29:03.734Z,16.73
2017-06-11T08:30:13.688Z,16.76
2017-06-11T08:31:23.323Z,16.69
2017-06-11T08:32:33.278Z,16.65
2017-06-11T08:33:43.544Z,16.74
2017-06-11T08:34:53.806Z,16.8
2017-06-11T08:36:04.072Z,16.76
2017-06-11T08:37:14.336Z,16.76
2017-06-11T08:38:24.605Z,16.79
2017-06-11T08:39:34.870Z,16.58
2017-06-11T08:40:44.817Z,16.61
2017-06-11T08:41:54.785Z,16.59
2017-06-11T08:43:05.063Z,16.68
2017-06-11T08:44:15.328Z,16.59
2017-06-11T08:45:25.594Z,16.49
2017-06-11T08:46:35.868Z,16.44
2017-06-11T08:47:45.507Z,16.36
2017-06-11T08:48:55.767Z,16.46
2017-06-11T08:50:06.028Z,16.29
2017-06-11T08:51:16.293Z,16.34
2017-06-11T08:52:26.558Z,16.29
2017-06-11T08:53:36.507Z,16.25
2017-06-11T08:54:46.475Z,16.37
2017-06-11T08:55:56.742Z,16.34
2017-06-11T08:57:07.006Z,16.31
2017-06-11T08:58:17.270Z,16.26
2017-06-11T08:59:27.532Z,16.25
2017-06-11T09:00:37.795Z,16.21
2017-06-11T09:01:47.748Z,16.24
2017-06-11T09:02:58.012Z,16.21
2017-06-11T09:04:08.284Z,16.18
2017-06-11T09:05:18.235Z,16.06
2017-06-11T09:06:28.507Z,15.99
2017-06-11T09:07:38.452Z,16.03
2017-06-11T09:08:48.414Z,16.06
2017-06-11T09:09:58.049Z,15.98
2017-06-11T09:11:08.315Z,15.9
2017-06-11T09:12:18.580Z,15.9
2017-06-11T09:13:28.528Z,15.85
2017-06-11T09:14:38.785Z,15.83
2017-06-11T09:15:48.737Z,15.83
2017-06-11T09:16:59.001Z,15.8
2017-06-11T09:18:09.266Z,15.81
2017-06-11T09:19:19.219Z,15.76
2017-06-11T09:20:29.486Z,15.7
2017-06-11T09:21:39.134Z,15.7
2017-06-11T09:22:49.086Z,15.81
2017-06-11T09:23:59.045Z,15.66
2017-06-11T09:25:09.310Z,15.75
2017-06-11T09:26:18.948Z,15.78
2017-06-11T09:27:29.209Z,15.81
2017-06-11T09:28:39.155Z,15.92
2017-06-11T09:29:49.136Z,16.05
2017-06-11T09:30:59.398Z,15.98
2017-06-11T09:32:09.660Z,16.06
2017-06-11T09:33:19.927Z,16.18
2017-06-11T09:34:30.189Z,16.22
2017-06-11T09:35:40.146Z,16.22
2017-06-11T09:36:50.416Z,16.37
2017-06-11T09:38:00.363Z,16.4
2017-06-11T09:39:10.622Z,16.43
2017-06-11T09:40:20.887Z,16.49
2017-06-11T09:41:31.149Z,16.61
2017-06-11T09:42:41.099Z,16.5
2017-06-11T09:43:51.048Z,16.58
2017-06-11T09:45:01.314Z,16.69
2017-06-11T09:46:11.585Z,16.82
2017-06-11T09:47:21.533Z,16.92
2017-06-11T09:48:31.477Z,16.95
2017-06-11T09:49:41.424Z,16.94
2017-06-11T09:50:51.686Z,16.87
2017-06-11T09:52:01.959Z,16.76
2017-06-11T09:53:12.232Z,16.64
2017-06-11T09:54:22.492Z,16.65
2017-06-11T09:55:32.459Z,16.51
2017-06-11T09:56:42.406Z,16.54
2017-06-11T09:57:52.670Z,16.5
2017-06-11T09:59:02.932Z,16.43
2017-06-11T10:00:13.193Z,16.46
2017-06-11T10:01:23.474Z,16.4
2017-06-11T10:02:33.792Z,16.4
2017-06-11T10:03:43.744Z,16.39
2017-06-11T10:04:53.706Z,16.32
2017-06-11T10:06:03.663Z,16.17
2017-06-11T10:07:13.929Z,16.16
2017-06-11T10:08:24.220Z,16.1
2017-06-11T10:09:34.484Z,16.06
2017-06-11T10:10:44.747Z,16.02
2017-06-11T10:11:55.011Z,16.08
2017-06-11T10:13:05.273Z,16.02
2017-06-11T10:14:15.532Z,16.02
2017-06-11T10:15:25.799Z,15.91
2017-06-11T10:16:36.063Z,15.88
2017-06-11T10:17:46.015Z,15.91
2017-06-11T10:18:55.966Z,15.96
2017-06-11T10:20:05.921Z,15.88
2017-06-11T10:21:16.182Z,15.92
2017-06-11T10:22:26.446Z,15.84
2017-06-11T10:23:36.739Z,15.84
2017-06-11T10:24:46.995Z,15.83
2017-06-11T10:25:57.259Z,15.88
2017-06-11T10:27:07.214Z,15.78
2017-06-11T10:28:17.475Z,15.75
2017-06-11T10:29:27.741Z,15.69
2017-06-11T10:30:37.998Z,15.75
2017-06-11T10:31:47.950Z,15.76
2017-06-11T10:32:57.583Z,15.72
2017-06-11T10:34:07.531Z,15.76
2017-06-11T10:35:17.801Z,15.84
2017-06-11T10:36:27.750Z,15.81
2017-06-11T10:37:37.697Z,15.8
2017-06-11T10:38:47.958Z,15.88
2017-06-11T10:39:58.220Z,15.8
2017-06-11T10:41:07.849Z,15.92
2017-06-11T10:42:18.114Z,15.91
2017-06-11T10:43:28.382Z,15.9
2017-06-11T10:44:38.645Z,15.83
2017-06-11T10:45:48.281Z,15.84
2017-06-11T10:46:58.230Z,15.75
2017-06-11T10:48:08.496Z,15.72
2017-06-11T10:49:18.447Z,15.76
2017-06-11T10:50:28.717Z,15.81
2017-06-11T10:51:38.666Z,15.76
2017-06-11T10:52:48.940Z,15.81
2017-06-11T10:53:59.204Z,15.73
2017-06-11T10:55:09.471Z,15.75
2017-06-11T10:56:19.428Z,15.81
2017-06-11T10:57:29.701Z,15.83
2017-06-11T10:58:39.965Z,15.88
2017-06-11T10:59:49.915Z,15.96
2017-06-11T11:01:00.182Z,16.06
2017-06-11T11:02:10.443Z,16.06
2017-06-11T11:03:20.712Z,16.12
2017-06-11T11:04:30.657Z,16.12
2017-06-11T11:05:40.603Z,16.06
2017-06-11T11:06:50.561Z,16.08
2017-06-11T11:08:00.831Z,16.12
2017-06-11T11:09:11.091Z,16.03
2017-06-11T11:10:21.350Z,15.88
2017-06-11T11:11:31.617Z,15.9
2017-06-11T11:12:41.883Z,15.91
2017-06-11T11:13:51.837Z,15.83
2017-06-11T11:15:02.099Z,15.78
2017-06-11T11:16:12.361Z,15.83
2017-06-11T11:17:22.619Z,15.8
2017-06-11T11:18:32.882Z,15.78
2017-06-11T11:19:43.141Z,15.81
2017-06-11T11:20:53.091Z,15.78
2017-06-11T11:22:03.037Z,15.78
2017-06-11T11:23:13.303Z,15.73
2017-06-11T11:24:23.586Z,15.76
2017-06-11T11:25:33.532Z,15.7
2017-06-11T11:26:43.484Z,15.67
2017-06-11T11:27:53.746Z,15.6
2017-06-11T11:29:03.381Z,15.57
2017-06-11T11:30:13.643Z,15.45
2017-06-11T11:31:23.583Z,15.37
2017-06-11T11:32:33.522Z,15.47
2017-06-11T11:33:43.775Z,15.44
2017-06-11T11:34:53.757Z,15.35
2017-06-11T11:36:03.388Z,15.35
2017-06-11T11:37:13.651Z,15.35
2017-06-11T11:38:23.907Z,15.35
2017-06-11T11:39:33.871Z,15.18
2017-06-11T11:40:43.812Z,15.12
2017-06-11T11:41:53.449Z,15.07
2017-06-11T11:43:03.704Z,15.1
2017-06-11T11:44:13.962Z,15.08
2017-06-11T11:45:23.907Z,15.04
2017-06-11T11:46:33.856Z,14.92
2017-06-11T11:47:44.120Z,14.89
2017-06-11T11:48:54.071Z,14.85
2017-06-11T11:50:04.017Z,14.85
2017-06-11T11:51:14.278Z,14.74
2017-06-11T11:52:24.542Z,14.71
2017-06-11T11:53:34.802Z,14.79
2017-06-11T11:54:45.065Z,14.71
2017-06-11T11:55:55.011Z,14.74
2017-06-11T11:57:04.958Z,14.61
2017-06-11T11:58:15.213Z,14.7
2017-06-11T11:59:24.525Z,14.73
2017-06-11T12:00:34.783Z,14.67
2017-06-11T12:01:45.046Z,14.62
2017-06-11T12:02:55.308Z,14.74
2017-06-11T12:04:05.250Z,14.66
2017-06-11T12:05:15.195Z,14.66
2017-06-11T12:06:25.449Z,14.67
2017-06-11T12:07:35.395Z,14.61
2017-06-11T12:08:45.655Z,14.68
2017-06-11T12:09:55.293Z,14.68
2017-06-11T12:11:05.553Z,14.63
2017-06-11T12:12:15.498Z,14.63
2017-06-11T12:13:25.787Z,14.66
2017-06-11T12:14:36.050Z,14.58
2017-06-11T12:15:45.683Z,14.66
2017-06-11T12:16:55.936Z,14.78
2017-06-11T12:18:06.190Z,14.86
2017-06-11T12:19:16.451Z,14.86
2017-06-11T12:20:26.709Z,14.87
2017-06-11T12:21:36.966Z,14.94
2017-06-11T12:22:46.595Z,15.08
2017-06-11T12:23:56.542Z,15.19
2017-06-11T12:25:06.798Z,15.19
2017-06-11T12:26:17.068Z,15.35
2017-06-11T12:27:27.332Z,15.27
2017-06-11T12:28:37.590Z,15.32
2017-06-11T12:29:47.849Z,15.36
2017-06-11T12:30:57.482Z,15.33
2017-06-11T12:32:07.746Z,15.33
2017-06-11T12:33:18.010Z,15.39
2017-06-11T12:34:28.269Z,15.36
2017-06-11T12:35:38.529Z,15.32
2017-06-11T12:36:48.788Z,15.29
2017-06-11T12:37:58.742Z,15.3
2017-06-11T12:39:08.700Z,15.27
2017-06-11T12:40:18.641Z,15.36
2017-06-11T12:41:28.902Z,15.43
2017-06-11T12:42:39.170Z,15.43
2017-06-11T12:43:49.431Z,15.5
2017-06-11T12:44:59.684Z,15.43
2017-06-11T12:46:09.627Z,15.51
2017-06-11T12:47:19.574Z,15.57
2017-06-11T12:48:29.833Z,15.63
2017-06-11T12:49:40.092Z,15.84
2017-06-11T12:50:50.344Z,15.7
2017-06-11T12:52:00.293Z,15.73
2017-06-11T12:53:10.558Z,15.81
2017-06-11T12:54:20.820Z,15.92
2017-06-11T12:55:31.078Z,15.94
2017-06-11T12:56:41.026Z,15.87
2017-06-11T12:57:51.488Z,15.94
2017-06-11T12:59:01.752Z,15.91
2017-06-11T13:00:12.011Z,15.91
2017-06-11T13:01:22.284Z,15.88
2017-06-11T13:02:32.549Z,15.98
2017-06-11T13:03:42.812Z,15.88
2017-06-11T13:04:52.761Z,15.98
2017-06-11T13:06:02.709Z,15.85
2017-06-11T13:07:12.347Z,15.78
2017-06-11T13:08:22.610Z,15.84
2017-06-11T13:09:32.246Z,15.73
2017-06-11T13:10:41.882Z,15.81
2017-06-11T13:11:51.515Z,15.84
2017-06-11T13:13:01.775Z,15.76
2017-06-11T13:14:12.043Z,15.69
2017-06-11T13:15:21.986Z,15.63
2017-06-11T13:16:32.242Z,15.62
2017-06-11T13:17:42.190Z,15.54
2017-06-11T13:18:52.454Z,15.59
2017-06-11T13:20:02.718Z,15.48
2017-06-11T13:21:12.986Z,15.41
2017-06-11T13:22:23.253Z,15.43
2017-06-11T13:23:33.201Z,15.3
2017-06-11T13:24:43.463Z,15.3
2017-06-11T13:25:53.723Z,15.25
2017-06-11T13:27:03.985Z,15.19
2017-06-11T13:28:14.249Z,15.18
2017-06-11T13:29:24.194Z,15.25
2017-06-11T13:30:34.454Z,15.17
2017-06-11T13:31:44.721Z,15.18
2017-06-11T13:32:54.669Z,15.19
2017-06-11T13:34:04.613Z,15.18
2017-06-11T13:35:14.871Z,15.32
2017-06-11T13:36:24.823Z,15.22
2017-06-11T13:37:34.769Z,15.15
2017-06-11T13:38:45.031Z,15.18
2017-06-11T13:39:54.663Z,15.15
2017-06-11T13:41:04.924Z,15.14
2017-06-11T13:42:15.185Z,15.14
2017-06-11T13:43:25.442Z,15.18
2017-06-11T13:44:35.775Z,15.15
2017-06-11T13:45:46.045Z,15.12
2017-06-11T13:46:56.316Z,15.08
2017-06-11T13:48:06.582Z,15.12
2017-06-11T13:49:16.529Z,15.02
2017-06-11T13:50:26.782Z,14.99
2017-06-11T13:51:37.044Z,15.02
2017-06-11T13:52:46.735Z,15.02
2017-06-11T13:53:56.680Z,15.07
2017-06-11T13:55:06.633Z,15.05
2017-06-11T13:56:16.892Z,15.05
2017-06-11T13:57:27.159Z,14.97
2017-06-11T13:58:37.419Z,15.02
2017-06-11T13:59:47.677Z,14.96
2017-06-11T14:00:57.931Z,14.97
2017-06-11T14:02:08.192Z,14.94
2017-06-11T14:03:18.143Z,15
2017-06-11T14:04:27.773Z,15.02
2017-06-11T14:05:37.723Z,15.07
2017-06-11T14:06:47.682Z,15.11
2017-06-11T14:07:57.629Z,15.14
2017-06-11T14:09:07.566Z,15.27
2017-06-11T14:10:17.824Z,15.1
2017-06-11T14:11:27.773Z,15.14
2017-06-11T14:12:38.038Z,15.22
2017-06-11T14:13:48.296Z,15.14
2017-06-11T14:14:58.550Z,15.25
2017-06-11T14:16:08.806Z,15.33
2017-06-11T14:17:19.069Z,15.35
2017-06-11T14:18:29.327Z,15.32
2017-06-11T14:19:39.586Z,15.35
2017-06-11T14:20:49.849Z,15.33
2017-06-11T14:21:59.796Z,15.27
2017-06-11T14:23:10.066Z,15.33
2017-06-11T14:24:19.699Z,15.32
2017-06-11T14:25:29.958Z,15.23
2017-06-11T14:26:40.220Z,15.22
2017-06-11T14:27:50.478Z,15.18
2017-06-11T14:29:00.108Z,15.15
2017-06-11T14:30:10.384Z,15.17
2017-06-11T14:31:20.641Z,15.1
2017-06-11T14:32:30.587Z,15.11
2017-06-11T14:33:40.842Z,15.07
2017-06-11T14:34:51.093Z,15.05
2017-06-11T14:36:00.727Z,15.02
2017-06-11T14:37:10.988Z,15.05
2017-06-11T14:38:21.273Z,15
2017-06-11T14:39:31.530Z,15.05
2017-06-11T14:40:41.785Z,15.02
2017-06-11T14:41:52.048Z,15.05
2017-06-11T14:43:01.992Z,15.05
2017-06-11T14:44:12.265Z,15.08
2017-06-11T14:45:22.526Z,15
2017-06-11T14:46:32.786Z,15.05
2017-06-11T14:47:43.051Z,15.05
2017-06-11T14:48:53.310Z,15.04
2017-06-11T14:50:03.566Z,14.97
2017-06-11T14:51:13.511Z,15
2017-06-11T14:52:23.772Z,15
2017-06-11T14:53:34.030Z,15.1
2017-06-11T14:54:44.290Z,15.08
2017-06-11T14:55:54.549Z,15.12
2017-06-11T14:57:04.180Z,15.07
2017-06-11T14:58:14.446Z,15.08
2017-06-11T14:59:24.392Z,15.08
2017-06-11T15:00:34.348Z,15.1
2017-06-11T15:01:44.602Z,15.1
2017-06-11T15:02:54.866Z,15.08
2017-06-11T15:04:04.815Z,15.12
2017-06-11T15:05:14.763Z,15.11
2017-06-11T15:06:25.028Z,15.12